Time;durP1;ratioP1;P1;durP2;ratioP2;P2;SDS_P1;SDS_P2;PMS_P1;PMS_P2;Temp;Humidity;BMP_temperature;BMP_pressure;BME280_temperature;BME280_humidity;BME280_pressure;Samples;Min_cycle;Max_cycle;Signal;HPM_P1;HPM_P2
2022/04/04 05:22:57;;;;;;;;;;;;;;;5.66;100.00;98514.91;4876639;24;20257;-75
2022/04/04 05:25:25;;;;;;;;;;;;;;;5.68;100.00;98526.44;4793758;29;19962;-74
2022/04/04 05:27:52;;;;;;;;;;;;;;;5.70;100.00;98524.91;4792892;29;19950;-75
2022/04/04 05:30:20;;;;;;;;;;;;;;;5.65;100.00;98525.19;4808439;29;19953;-75
2022/04/04 05:32:47;;;;;;;;;;;;;;;5.68;100.00;98527.25;4791040;29;20333;-74
2022/04/04 05:35:16;;;;;;;;;;;;;;;5.63;100.00;98537.81;4807496;29;19977;-74
2022/04/04 05:37:43;;;;;;;;;;;;;;;5.64;100.00;98536.66;4808410;29;19959;-74
2022/04/04 05:40:11;;;;;;;;;;;;;;;5.64;100.00;98542.22;4808275;29;20260;-75
2022/04/04 05:42:40;;;;;;;;;;;;;;;5.67;100.00;98541.50;4807705;29;19964;-74
2022/04/04 05:45:09;;;;;;;;;;;;;;;5.64;100.00;98543.03;4807923;29;19956;-74
2022/04/04 05:47:36;;;;;;;;;;;;;;;5.69;100.00;98547.47;4806966;29;19954;-74
2022/04/04 05:50:04;;;;;;;;;;;;;;;5.77;100.00;98544.50;4797611;29;19954;-74
2022/04/04 05:52:34;;;;;;;;;;;;;;;5.78;100.00;98543.34;4809786;29;19989;-74
2022/04/04 05:55:02;;;;;;;;;;;;;;;5.77;100.00;98550.06;4806259;29;19980;-74
2022/04/04 05:57:31;;;;;;;;;;;;;;;5.76;100.00;98548.47;4805285;29;19953;-75
2022/04/04 05:59:58;;;;;;;;;;;;;;;5.81;100.00;98558.47;4807768;29;19954;-74
2022/04/04 06:02:27;;;;;;;;;;;;;;;5.79;100.00;98544.16;4808290;29;20008;-75
2022/04/04 06:04:55;;;;;;;;;;;;;;;5.79;100.00;98546.94;4807780;29;19961;-73
2022/04/04 06:07:23;;;;;;;;;;;;;;;5.87;100.00;98545.94;4807340;29;19953;-75
2022/04/04 06:09:50;;;;;;;;;;;;;;;5.95;100.00;98548.53;4804637;29;19963;-75
2022/04/04 06:12:18;;;;;;;;;;;;;;;6.11;100.00;98548.53;4801284;29;19955;-75
2022/04/04 06:14:45;;;;;;;;;;;;;;;6.55;100.00;98552.63;4807402;29;19978;-74
2022/04/04 06:17:13;;;;;;;;;;;;;;;7.45;100.00;98558.72;4805695;29;19960;-75
2022/04/04 06:19:41;;;;;;;;;;;;;;;8.34;100.00;98553.41;4800731;29;19950;-74
2022/04/04 06:22:09;;;;;;;;;;;;;;;10.59;100.00;98554.00;4802364;29;19977;-72
2022/04/04 06:24:38;;;;;;;;;;;;;;;12.91;100.00;98565.38;4807852;29;19951;-72
2022/04/04 06:27:05;;;;;;;;;;;;;;;15.38;100.00;98565.28;4808139;29;19964;-75
2022/04/04 06:29:32;;;;;;;;;;;;;;;16.54;100.00;98568.31;4807752;29;19953;-75
2022/04/04 06:32:00;;;;;;;;;;;;;;;17.26;100.00;98584.25;4808005;29;19954;-74
2022/04/04 06:34:27;;;;;;;;;;;;;;;16.98;100.00;98579.97;4807271;29;19954;-74
2022/04/04 06:36:55;;;;;;;;;;;;;;;16.18;100.00;98576.56;4805627;29;19968;-74
2022/04/04 06:39:22;;;;;;;;;;;;;;;16.03;100.00;98578.84;4801877;29;19955;-74
2022/04/04 06:41:51;;;;;;;;;;;;;;;15.41;100.00;98586.97;4806268;29;19956;-74
2022/04/04 06:44:18;;;;;;;;;;;;;;;14.58;100.00;98581.94;4805145;29;19968;-74
2022/04/04 06:46:49;;;;;;;;;;;;;;;13.98;100.00;98583.25;4806951;29;19981;-75
2022/04/04 06:49:16;;;;;;;;;;;;;;;13.55;100.00;98585.56;4806499;29;19974;-75
2022/04/04 06:51:44;;;;;;;;;;;;;;;13.14;100.00;98579.75;4802335;29;19957;-74
2022/04/04 06:54:11;;;;;;;;;;;;;;;12.91;100.00;98579.41;4799744;29;19957;-74
2022/04/04 06:56:38;;;;;;;;;;;;;;;12.62;100.00;98580.69;4806656;29;19977;-74
2022/04/04 06:59:06;;;;;;;;;;;;;;;12.06;100.00;98584.38;4806961;29;19956;-74
2022/04/04 07:01:35;;;;;;;;;;;;;;;11.77;100.00;98582.78;4807648;29;19963;-74
2022/04/04 07:04:03;;;;;;;;;;;;;;;11.33;100.00;98580.28;4808866;29;19951;-74
2022/04/04 07:06:30;;;;;;;;;;;;;;;11.14;100.00;98580.63;4808427;29;19965;-74
2022/04/04 07:08:58;;;;;;;;;;;;;;;11.01;100.00;98579.34;4807893;29;19964;-74
2022/04/04 07:11:26;;;;;;;;;;;;;;;10.89;100.00;98577.72;4809971;29;19953;-74
2022/04/04 07:13:53;;;;;;;;;;;;;;;10.83;100.00;98578.50;4806271;29;19955;-74
2022/04/04 07:16:21;;;;;;;;;;;;;;;10.76;100.00;98581.28;4808380;29;19972;-74
2022/04/04 07:18:49;;;;;;;;;;;;;;;10.67;100.00;98578.81;4809013;29;19951;-74
2022/04/04 07:21:17;;;;;;;;;;;;;;;10.41;100.00;98582.69;4807686;29;20254;-74
2022/04/04 07:23:45;;;;;;;;;;;;;;;10.32;100.00;98582.19;4809650;29;20366;-74
2022/04/04 07:26:19;;;;;;;;;;;;;;;10.23;100.00;98573.34;4809732;29;20379;-74
2022/04/04 07:28:49;;;;;;;;;;;;;;;10.02;100.00;98578.78;4809770;29;19957;-74
2022/04/04 07:31:19;;;;;;;;;;;;;;;9.78;100.00;98582.94;4810560;29;20254;-74
2022/04/04 07:33:49;;;;;;;;;;;;;;;9.57;100.00;98590.31;4809161;29;20255;-74
2022/04/04 07:36:19;;;;;;;;;;;;;;;9.57;100.00;98590.31;4810163;29;20264;-74
2022/04/04 07:38:49;;;;;;;;;;;;;;;9.55;100.00;98587.94;4809149;29;20263;-74
2022/04/04 07:41:17;;;;;;;;;;;;;;;9.59;100.00;98588.75;4808835;29;20238;-74
2022/04/04 07:43:44;;;;;;;;;;;;;;;9.59;100.00;98593.53;4799047;29;19956;-74
2022/04/04 07:46:11;;;;;;;;;;;;;;;9.22;100.00;98590.75;4810300;29;19956;-74
2022/04/04 07:48:41;;;;;;;;;;;;;;;9.19;100.00;98591.53;4800723;29;19962;-74
2022/04/04 07:51:09;;;;;;;;;;;;;;;9.36;100.00;98590.94;4807183;29;20333;-74
2022/04/04 07:53:36;;;;;;;;;;;;;;;9.39;100.00;98598.50;4809795;29;19965;-74
2022/04/04 07:56:04;;;;;;;;;;;;;;;9.17;100.00;98591.91;4809197;29;19971;-74
2022/04/04 07:58:31;;;;;;;;;;;;;;;9.40;100.00;98597.34;4798206;29;19963;-74
2022/04/04 08:00:59;;;;;;;;;;;;;;;9.31;100.00;98596.84;4811790;29;19964;-74
2022/04/04 08:03:26;;;;;;;;;;;;;;;9.12;100.00;98599.84;4809548;29;19964;-74
2022/04/04 08:05:54;;;;;;;;;;;;;;;9.18;100.00;98603.88;4809383;29;19961;-74
2022/04/04 08:08:22;;;;;;;;;;;;;;;9.12;100.00;98608.97;4805898;29;19960;-74
2022/04/04 08:10:50;;;;;;;;;;;;;;;9.06;100.00;98602.16;4808119;29;19956;-74
2022/04/04 08:13:17;;;;;;;;;;;;;;;9.05;100.00;98610.88;4797401;29;19956;-74
2022/04/04 08:15:46;;;;;;;;;;;;;;;8.82;100.00;98611.00;4790901;30;20296;-74
2022/04/04 08:18:14;;;;;;;;;;;;;;;8.78;100.00;98612.94;4791624;30;19958;-74
2022/04/04 08:20:43;;;;;;;;;;;;;;;8.75;100.00;98608.13;4792705;29;19965;-74
2022/04/04 08:23:16;;;;;;;;;;;;;;;8.74;100.00;98617.66;4779851;30;19964;-74
2022/04/04 08:25:44;;;;;;;;;;;;;;;8.50;100.00;98618.13;4780432;29;19958;-74
2022/04/04 08:28:11;;;;;;;;;;;;;;;8.50;100.00;98613.38;4802739;29;19965;-74
2022/04/04 08:30:39;;;;;;;;;;;;;;;8.50;100.00;98621.72;4800788;29;19956;-74
2022/04/04 08:33:06;;;;;;;;;;;;;;;8.25;100.00;98619.72;4795113;29;19957;-74
2022/04/04 08:35:35;;;;;;;;;;;;;;;8.05;100.00;98624.56;4793447;29;19976;-74
2022/04/04 08:38:02;;;;;;;;;;;;;;;8.25;100.00;98630.84;4796732;29;20251;-74
2022/04/04 08:40:30;;;;;;;;;;;;;;;7.99;100.00;98626.06;4795925;29;19956;-74
2022/04/04 08:42:58;;;;;;;;;;;;;;;7.93;100.00;98622.78;4790785;30;19959;-74
2022/04/04 08:45:25;;;;;;;;;;;;;;;8.22;100.00;98620.44;4795071;29;19961;-74
2022/04/04 08:47:54;;;;;;;;;;;;;;;8.22;100.00;98623.22;4804672;29;19953;-74
2022/04/04 08:50:21;;;;;;;;;;;;;;;8.27;100.00;98629.31;4798755;29;19955;-74
2022/04/04 08:52:49;;;;;;;;;;;;;;;8.02;100.00;98622.53;4803081;29;20364;-74
2022/04/04 08:55:17;;;;;;;;;;;;;;;8.34;100.00;98615.50;4794253;29;19954;-74
2022/04/04 08:57:44;;;;;;;;;;;;;;;8.62;100.00;98617.91;4805030;29;20250;-74
2022/04/04 09:00:12;;;;;;;;;;;;;;;8.84;100.00;98621.78;4791600;29;20261;-74
2022/04/04 09:02:54;;;;;;;;;;;;;;;8.99;100.00;98635.53;4804926;29;19954;-74
2022/04/04 09:05:22;;;;;;;;;;;;;;;8.99;100.00;98626.34;4787037;29;19952;-74
2022/04/04 09:08:00;;;;;;;;;;;;;;;9.49;100.00;98636.91;4804848;29;19952;-74
2022/04/04 09:10:31;;;;;;;;;;;;;;;10.02;100.00;98626.25;4799084;29;19984;-74
2022/04/04 09:13:28;;;;;;;;;;;;;;;10.36;100.00;98629.75;4808302;29;20341;-74
2022/04/04 09:15:55;;;;;;;;;;;;;;;10.32;100.00;98635.31;4803562;29;19980;-73
2022/04/04 09:18:41;;;;;;;;;;;;;;;10.02;100.00;98633.84;4808349;29;19948;-74
2022/04/04 09:21:12;;;;;;;;;;;;;;;10.36;100.00;98624.16;4808122;29;19974;-74
2022/04/04 09:23:46;;;;;;;;;;;;;;;10.62;100.00;98623.13;4806343;29;19959;-74
2022/04/04 09:26:31;;;;;;;;;;;;;;;10.51;100.00;98629.44;4797364;29;20036;-74
2022/04/04 09:29:00;;;;;;;;;;;;;;;10.73;100.00;98633.19;4795279;29;19960;-74
2022/04/04 09:31:28;;;;;;;;;;;;;;;10.56;100.00;98625.50;4798610;29;19955;-74
2022/04/04 09:33:58;;;;;;;;;;;;;;;10.33;100.00;98625.75;4796966;29;19963;-74
2022/04/04 09:36:27;;;;;;;;;;;;;;;10.60;100.00;98625.50;4807654;29;19971;-74
2022/04/04 09:38:59;;;;;;;;;;;;;;;10.60;100.00;98620.72;4795857;29;20375;-74
2022/04/04 09:41:28;;;;;;;;;;;;;;;10.55;100.00;98633.09;4804254;29;19958;-74
2022/04/04 09:43:59;;;;;;;;;;;;;;;10.73;100.00;98621.19;4794003;29;20342;-74
2022/04/04 09:46:30;;;;;;;;;;;;;;;10.37;100.00;98626.56;4799402;29;19956;-74
2022/04/04 09:49:13;;;;;;;;;;;;;;;10.22;100.00;98630.44;4789877;30;19952;-74
2022/04/04 09:51:50;;;;;;;;;;;;;;;10.51;100.00;98623.84;4790142;30;20248;-74
2022/04/04 09:54:19;;;;;;;;;;;;;;;10.01;100.00;98619.06;4789660;30;19961;-74
2022/04/04 09:56:47;;;;;;;;;;;;;;;10.14;100.00;98623.19;4800808;29;19977;-74
2022/04/04 09:59:16;;;;;;;;;;;;;;;10.04;100.00;98623.88;4793077;29;19974;-74
2022/04/04 10:01:44;;;;;;;;;;;;;;;9.86;100.00;98622.91;4805024;29;19955;-74
2022/04/04 10:04:14;;;;;;;;;;;;;;;9.39;100.00;98620.84;4775529;29;19956;-73
2022/04/04 10:06:43;;;;;;;;;;;;;;;9.27;100.00;98621.91;4792349;29;19960;-74
2022/04/04 10:09:10;;;;;;;;;;;;;;;9.27;100.00;98609.94;4799182;29;20522;-74
2022/04/04 10:11:39;;;;;;;;;;;;;;;9.38;100.00;98618.44;4795740;29;19958;-74
2022/04/04 10:14:06;;;;;;;;;;;;;;;9.10;100.00;98618.91;4801203;29;20363;-74
2022/04/04 10:16:34;;;;;;;;;;;;;;;9.39;100.00;98617.28;4802899;29;19973;-74
2022/04/04 10:19:01;;;;;;;;;;;;;;;9.41;100.00;98618.50;4789719;30;19957;-74
2022/04/04 10:21:28;;;;;;;;;;;;;;;9.62;100.00;98601.94;4795259;29;19973;-73
2022/04/04 10:23:58;;;;;;;;;;;;;;;9.89;100.00;98613.78;4805009;29;19966;-74
2022/04/04 10:26:27;;;;;;;;;;;;;;;9.96;100.00;98607.44;4807504;29;19958;-74
2022/04/04 10:29:08;;;;;;;;;;;;;;;10.04;100.00;98601.53;4807436;29;20109;-74
2022/04/04 10:31:55;;;;;;;;;;;;;;;10.30;100.00;98594.97;4807567;29;19972;-74
2022/04/04 10:34:24;;;;;;;;;;;;;;;10.53;100.00;98593.53;4809610;29;19955;-74
2022/04/04 10:36:56;;;;;;;;;;;;;;;10.24;100.00;98591.75;4810881;29;19977;-74
2022/04/04 10:39:32;;;;;;;;;;;;;;;10.30;100.00;98589.38;4810878;29;19958;-74
2022/04/04 10:42:00;;;;;;;;;;;;;;;10.41;100.00;98582.69;4810676;29;19960;-74
2022/04/04 10:44:47;;;;;;;;;;;;;;;10.64;100.00;98582.38;4803605;29;19977;-74
2022/04/04 10:47:22;;;;;;;;;;;;;;;10.37;100.00;98584.63;4807603;29;19958;-74
2022/04/04 10:49:50;;;;;;;;;;;;;;;10.60;100.00;98583.56;4810842;29;19960;-74
2022/04/04 10:52:19;;;;;;;;;;;;;;;10.59;100.00;98579.19;4810808;29;19958;-74
2022/04/04 10:54:47;;;;;;;;;;;;;;;10.75;100.00;98569.28;4810933;29;20248;-74
2022/04/04 10:57:16;;;;;;;;;;;;;;;10.54;100.00;98572.75;4811270;29;19978;-74
2022/04/04 10:59:47;;;;;;;;;;;;;;;10.76;100.00;98575.69;4810833;29;19959;-74
2022/04/04 11:02:18;;;;;;;;;;;;;;;10.19;100.00;98568.94;4810672;29;19959;-74
2022/04/04 11:07:41;;;;;;;;;;;;;;;9.73;100.00;98574.13;4784354;29;20266;-74
2022/04/04 11:10:09;;;;;;;;;;;;;;;9.70;100.00;98567.34;4810128;29;19951;-74
2022/04/04 11:12:55;;;;;;;;;;;;;;;9.85;100.00;98563.44;4810392;29;19967;-74
2022/04/04 11:15:45;;;;;;;;;;;;;;;9.47;100.00;98561.13;4810158;29;19988;-74
2022/04/04 11:18:13;;;;;;;;;;;;;;;9.72;100.00;98562.16;4810603;29;19976;-74
2022/04/04 11:20:49;;;;;;;;;;;;;;;9.74;100.00;98561.75;4810451;29;20359;-74
2022/04/04 11:23:17;;;;;;;;;;;;;;;9.53;100.00;98558.78;4792782;30;19988;-74
2022/04/04 11:25:55;;;;;;;;;;;;;;;9.69;100.00;98557.34;4792057;30;19978;-74
2022/04/04 11:28:24;;;;;;;;;;;;;;;9.65;100.00;98556.53;4790322;30;20008;-73
2022/04/04 11:30:53;;;;;;;;;;;;;;;9.95;100.00;98549.97;4788650;30;19955;-74
2022/04/04 11:33:25;;;;;;;;;;;;;;;10.40;100.00;98555.91;4791569;30;19957;-74
2022/04/04 11:35:54;;;;;;;;;;;;;;;10.48;100.00;98543.56;4792963;30;19960;-74
2022/04/04 11:38:22;;;;;;;;;;;;;;;10.60;100.00;98550.81;4792383;30;20355;-73
2022/04/04 11:40:56;;;;;;;;;;;;;;;10.74;100.00;98542.47;4792315;30;20341;-74
2022/04/04 11:43:24;;;;;;;;;;;;;;;10.63;100.00;98552.03;4792391;30;19956;-74
2022/04/04 11:45:55;;;;;;;;;;;;;;;10.62;100.00;98547.63;4789012;29;20269;-74
2022/04/04 11:48:26;;;;;;;;;;;;;;;10.56;100.00;98550.00;4781697;30;19959;-74
2022/04/04 11:50:57;;;;;;;;;;;;;;;10.45;100.00;98547.16;4784793;30;19958;-74
2022/04/04 11:53:30;;;;;;;;;;;;;;;10.46;100.00;98536.75;4774449;30;19953;-74
2022/04/04 11:56:02;;;;;;;;;;;;;;;10.45;100.00;98537.94;4774416;30;19952;-74
2022/04/04 11:58:31;;;;;;;;;;;;;;;10.31;100.00;98527.50;4774417;30;20394;-74
2022/04/04 12:01:04;;;;;;;;;;;;;;;10.35;100.00;98530.31;4757833;30;19956;-74
2022/04/04 12:03:43;;;;;;;;;;;;;;;10.40;100.00;98529.94;4774163;30;19962;-74
2022/04/04 12:06:10;;;;;;;;;;;;;;;10.61;100.00;98530.06;4758544;30;19965;-74
2022/04/04 12:08:42;;;;;;;;;;;;;;;10.53;100.00;98529.22;4779382;29;19959;-74
2022/04/04 12:11:10;;;;;;;;;;;;;;;10.84;100.00;98527.75;4791404;29;20363;-74
2022/04/04 12:13:49;;;;;;;;;;;;;;;11.10;100.00;98523.84;4789818;30;19957;-74
2022/04/04 12:16:17;;;;;;;;;;;;;;;10.68;100.00;98526.47;4791172;30;19962;-74
2022/04/04 12:18:51;;;;;;;;;;;;;;;10.94;100.00;98520.59;4791582;30;20007;-74
2022/04/04 12:21:20;;;;;;;;;;;;;;;11.15;100.00;98512.25;4795276;29;19982;-74
2022/04/04 12:26:35;;;;;;;;;;;;;;;11.16;100.00;98509.06;4809079;29;19963;-74
2022/04/04 12:29:09;;;;;;;;;;;;;;;11.47;100.00;98503.91;4809604;29;20255;-74
2022/04/04 12:31:37;;;;;;;;;;;;;;;11.37;100.00;98499.88;4809249;29;19962;-74
2022/04/04 12:34:06;;;;;;;;;;;;;;;11.29;100.00;98492.69;4808558;29;19958;-74
2022/04/04 12:36:38;;;;;;;;;;;;;;;11.35;100.00;98493.06;4808214;29;19965;-74
2022/04/04 12:39:06;;;;;;;;;;;;;;;10.98;100.00;98497.00;4808626;29;20242;-74
2022/04/04 12:41:43;;;;;;;;;;;;;;;11.02;100.00;98495.03;4809147;29;19963;-74
2022/04/04 12:44:11;;;;;;;;;;;;;;;11.16;100.00;98495.06;4808724;29;19962;-74
2022/04/04 12:46:39;;;;;;;;;;;;;;;10.98;100.00;98491.41;4807592;29;20368;-73
2022/04/04 12:49:10;;;;;;;;;;;;;;;10.96;100.00;98487.41;4808326;29;19959;-74
2022/04/04 12:51:38;;;;;;;;;;;;;;;11.02;100.00;98483.84;4805831;29;19957;-74
2022/04/04 12:54:05;;;;;;;;;;;;;;;11.04;100.00;98483.44;4802772;29;19966;-74
2022/04/04 12:56:47;;;;;;;;;;;;;;;10.93;100.00;98477.03;4788284;29;19983;-74
2022/04/04 12:59:14;;;;;;;;;;;;;;;11.26;100.00;98484.28;4804099;29;19977;-74
2022/04/04 13:01:42;;;;;;;;;;;;;;;11.14;100.00;98471.47;4806835;29;20459;-74
2022/04/04 13:04:20;;;;;;;;;;;;;;;11.41;100.00;98469.09;4805905;29;19955;-74
2022/04/04 13:06:48;;;;;;;;;;;;;;;11.44;100.00;98471.09;4805899;29;19958;-74
2022/04/04 13:09:25;;;;;;;;;;;;;;;11.72;100.00;98469.13;4806029;29;20535;-74
2022/04/04 13:11:53;;;;;;;;;;;;;;;11.88;100.00;98468.72;4796393;29;20261;-74
2022/04/04 13:14:24;;;;;;;;;;;;;;;12.01;100.00;98471.88;4811742;29;19959;-74
2022/04/04 13:17:01;;;;;;;;;;;;;;;12.01;100.00;98463.47;4803291;29;20220;-74
2022/04/04 13:19:29;;;;;;;;;;;;;;;12.07;100.00;98461.88;4801770;29;19971;-74
2022/04/04 13:21:56;;;;;;;;;;;;;;;12.29;100.00;98460.59;4799980;29;19978;-74
2022/04/04 13:24:24;;;;;;;;;;;;;;;12.45;100.00;98458.94;4803648;29;20227;-74
2022/04/04 13:26:52;;;;;;;;;;;;;;;12.54;95.79;98456.50;4801564;29;19956;-74
2022/04/04 13:29:19;;;;;;;;;;;;;;;12.44;97.16;98457.34;4797993;29;19961;-74
2022/04/04 13:31:47;;;;;;;;;;;;;;;12.48;99.77;98457.34;4802336;29;19958;-74
2022/04/04 13:34:15;;;;;;;;;;;;;;;12.57;97.71;98445.69;4805412;29;19986;-74
2022/04/04 13:36:43;;;;;;;;;;;;;;;12.63;99.43;98444.84;4802049;29;19953;-74
2022/04/04 13:39:11;;;;;;;;;;;;;;;12.52;99.09;98442.09;4794241;29;19992;-74
2022/04/04 13:41:40;;;;;;;;;;;;;;;12.24;100.00;98435.78;4801430;29;19963;-74
2022/04/04 13:44:08;;;;;;;;;;;;;;;11.98;98.87;98436.28;4797677;29;20269;-74
2022/04/04 13:46:36;;;;;;;;;;;;;;;11.96;99.92;98428.25;4791947;29;19967;-74
2022/04/04 13:49:03;;;;;;;;;;;;;;;12.02;100.00;98429.44;4805183;29;19954;-74
2022/04/04 13:51:31;;;;;;;;;;;;;;;12.09;100.00;98434.22;4800718;29;19986;-74
2022/04/04 13:54:00;;;;;;;;;;;;;;;11.88;99.28;98428.69;4803270;29;19957;-74
2022/04/04 13:56:29;;;;;;;;;;;;;;;11.69;100.00;98433.50;4806836;29;20237;-74
2022/04/04 13:58:57;;;;;;;;;;;;;;;11.75;97.51;98422.69;4802374;29;19976;-74
2022/04/04 14:01:25;;;;;;;;;;;;;;;11.56;96.05;98421.09;4804767;29;19989;-74
2022/04/04 14:03:53;;;;;;;;;;;;;;;11.51;99.04;98420.69;4807034;29;19951;-74
2022/04/04 14:06:21;;;;;;;;;;;;;;;11.48;98.56;98422.28;4800037;29;19954;-74
2022/04/04 14:08:48;;;;;;;;;;;;;;;11.54;97.46;98412.28;4805313;29;19960;-74
2022/04/04 14:11:16;;;;;;;;;;;;;;;11.79;100.00;98412.28;4803983;29;19973;-74
2022/04/04 14:13:45;;;;;;;;;;;;;;;11.75;95.53;98409.50;5284678;24;19970;-73
2022/04/04 14:16:13;;;;;;;;;;;;;;;11.88;100.00;98405.03;4805800;29;19987;-74
2022/04/04 14:18:40;;;;;;;;;;;;;;;11.93;100.00;98401.06;4805749;29;19980;-74
2022/04/04 14:21:08;;;;;;;;;;;;;;;11.91;98.19;98406.25;4809682;29;19951;-74
2022/04/04 14:23:37;;;;;;;;;;;;;;;11.93;99.79;98395.44;4810080;29;19955;-74
2022/04/04 14:26:05;;;;;;;;;;;;;;;12.06;99.11;98393.78;4808478;29;19964;-74
2022/04/04 14:28:33;;;;;;;;;;;;;;;12.14;97.18;98394.56;4809356;29;20251;-74
2022/04/04 14:31:01;;;;;;;;;;;;;;;12.13;100.00;98385.34;4808819;29;19958;-74
2022/04/04 14:33:29;;;;;;;;;;;;;;;12.23;98.10;98386.50;4809133;29;19957;-74
2022/04/04 14:35:57;;;;;;;;;;;;;;;12.33;99.40;98375.25;4801656;29;20352;-74
2022/04/04 14:38:25;;;;;;;;;;;;;;;12.30;98.45;98384.47;4801263;29;19988;-74
2022/04/04 14:40:53;;;;;;;;;;;;;;;12.31;96.96;98374.88;4807739;29;19960;-74
2022/04/04 14:43:21;;;;;;;;;;;;;;;12.43;100.00;98377.22;4806340;29;19958;-74
2022/04/04 14:45:49;;;;;;;;;;;;;;;12.49;94.12;98378.38;4809635;29;19957;-74
2022/04/04 14:48:16;;;;;;;;;;;;;;;12.45;94.29;98374.81;4805908;29;19964;-74
2022/04/04 14:50:44;;;;;;;;;;;;;;;12.29;94.01;98377.28;4805226;29;20329;-74
2022/04/04 14:53:12;;;;;;;;;;;;;;;12.27;93.49;98367.69;4811078;29;19961;-74
2022/04/04 14:55:57;;;;;;;;;;;;;;;12.30;93.86;98364.09;4810015;29;19958;-74
2022/04/04 14:58:25;;;;;;;;;;;;;;;12.12;95.14;98366.97;4810510;29;19975;-74
2022/04/04 15:00:52;;;;;;;;;;;;;;;11.96;93.39;98369.41;4810332;29;20049;-74
2022/04/04 15:03:20;;;;;;;;;;;;;;;11.95;95.74;98367.00;4810954;29;19957;-74
2022/04/04 15:05:47;;;;;;;;;;;;;;;11.74;97.73;98359.44;4809317;29;19965;-74
2022/04/04 15:08:15;;;;;;;;;;;;;;;11.59;96.63;98364.25;4809515;29;19996;-74
2022/04/04 15:10:43;;;;;;;;;;;;;;;11.64;98.57;98363.06;4810183;29;19957;-74
2022/04/04 15:13:11;;;;;;;;;;;;;;;11.64;97.69;98354.66;4810318;29;19955;-74
2022/04/04 15:15:38;;;;;;;;;;;;;;;11.80;100.00;98360.66;4809606;29;20373;-74
2022/04/04 15:18:05;;;;;;;;;;;;;;;11.83;97.29;98345.84;4805278;29;19978;-74
2022/04/04 15:20:36;;;;;;;;;;;;;;;11.99;98.10;98359.38;4806298;29;19960;-73
2022/04/04 15:23:05;;;;;;;;;;;;;;;12.05;100.00;98358.56;4809827;29;19955;-74
2022/04/04 15:25:33;;;;;;;;;;;;;;;11.73;97.19;98349.47;4803707;29;19961;-73
2022/04/04 15:28:01;;;;;;;;;;;;;;;11.82;98.48;98347.84;4788373;29;19962;-74
2022/04/04 15:30:34;;;;;;;;;;;;;;;11.88;99.61;98340.59;4802666;29;20035;-74
2022/04/04 15:33:02;;;;;;;;;;;;;;;11.72;99.14;98343.06;4800602;29;19967;-74
2022/04/04 15:35:30;;;;;;;;;;;;;;;11.80;100.00;98338.25;4804354;29;19963;-74
2022/04/04 15:37:57;;;;;;;;;;;;;;;11.80;100.00;98338.25;4807921;29;20334;-74
2022/04/04 15:40:25;;;;;;;;;;;;;;;11.71;100.00;98340.69;4808430;29;20356;-74
2022/04/04 15:42:53;;;;;;;;;;;;;;;11.71;100.00;98347.06;4806202;29;19955;-74
2022/04/04 15:45:23;;;;;;;;;;;;;;;11.68;100.00;98344.28;4809374;29;19963;-74
2022/04/04 15:47:52;;;;;;;;;;;;;;;11.52;100.00;98338.25;4800491;29;20357;-74
2022/04/04 15:50:20;;;;;;;;;;;;;;;11.56;100.00;98336.28;4804827;29;19957;-74
2022/04/04 15:52:47;;;;;;;;;;;;;;;11.46;99.71;98335.09;4809547;29;19964;-74
2022/04/04 15:55:15;;;;;;;;;;;;;;;11.38;100.00;98338.28;4803514;29;20257;-74
2022/04/04 15:57:42;;;;;;;;;;;;;;;11.31;100.00;98332.72;4813502;29;19957;-74
2022/04/04 16:00:12;;;;;;;;;;;;;;;11.31;100.00;98332.72;4799452;29;19970;-74
2022/04/04 16:02:40;;;;;;;;;;;;;;;11.41;100.00;98329.09;4808430;29;19953;-74
2022/04/04 16:05:08;;;;;;;;;;;;;;;11.35;100.00;98334.31;4808584;29;19962;-74
2022/04/04 16:07:36;;;;;;;;;;;;;;;11.22;100.00;98325.50;4808966;29;19956;-74
2022/04/04 16:10:06;;;;;;;;;;;;;;;11.21;100.00;98328.72;4798418;29;19957;-74
2022/04/04 16:12:36;;;;;;;;;;;;;;;11.11;99.33;98329.53;4808330;29;19954;-74
2022/04/04 16:15:04;;;;;;;;;;;;;;;11.07;100.00;98326.75;4799373;29;19980;-74
2022/04/04 16:17:46;;;;;;;;;;;;;;;10.99;100.00;98327.94;4807329;29;19962;-74
2022/04/04 16:20:14;;;;;;;;;;;;;;;10.91;100.00;98326.34;4803951;29;19978;-74
2022/04/04 16:22:43;;;;;;;;;;;;;;;10.84;100.00;98325.53;4797026;29;20245;-74
2022/04/04 16:25:11;;;;;;;;;;;;;;;10.78;100.00;98325.16;4808379;29;19962;-74
2022/04/04 16:27:40;;;;;;;;;;;;;;;10.69;100.00;98315.53;4807223;29;19956;-74
2022/04/04 16:30:08;;;;;;;;;;;;;;;10.63;100.00;98319.94;4808103;29;19962;-74
2022/04/04 16:32:38;;;;;;;;;;;;;;;10.62;100.00;98324.72;4806721;29;19965;-74
2022/04/04 16:35:09;;;;;;;;;;;;;;;10.55;100.00;98316.31;4806603;29;19954;-74
2022/04/04 16:37:39;;;;;;;;;;;;;;;10.50;100.00;98311.91;4804956;29;20598;-74
2022/04/04 16:40:07;;;;;;;;;;;;;;;10.51;100.00;98309.94;4806199;29;19974;-74
2022/04/04 16:42:35;;;;;;;;;;;;;;;10.50;100.00;98314.72;4806426;29;20557;-74
2022/04/04 16:45:05;;;;;;;;;;;;;;;10.48;100.00;98310.72;4803853;29;19955;-74
2022/04/04 16:47:33;;;;;;;;;;;;;;;10.46;100.00;98313.13;4808856;29;19962;-74
2022/04/04 16:50:00;;;;;;;;;;;;;;;10.42;100.00;98309.50;4809251;29;19949;-74
2022/04/04 16:52:28;;;;;;;;;;;;;;;10.41;100.00;98305.13;4808930;29;19966;-74
2022/04/04 16:54:55;;;;;;;;;;;;;;;10.33;100.00;98303.50;4789898;29;19957;-74
2022/04/04 16:57:22;;;;;;;;;;;;;;;10.29;100.00;98308.28;4807727;29;19962;-74
2022/04/04 16:59:50;;;;;;;;;;;;;;;10.24;100.00;98306.69;4807110;29;19999;-73
2022/04/04 17:02:17;;;;;;;;;;;;;;;10.21;100.00;98315.03;4801724;29;20246;-74
2022/04/04 17:04:44;;;;;;;;;;;;;;;10.17;100.00;98303.84;4804488;29;19972;-74
2022/04/04 17:07:12;;;;;;;;;;;;;;;10.17;100.00;98311.44;4806020;29;19961;-74
2022/04/04 17:09:39;;;;;;;;;;;;;;;10.14;100.00;98306.66;4807243;29;19966;-74
2022/04/04 17:12:07;;;;;;;;;;;;;;;10.06;100.00;98304.97;4804859;29;19960;-74
2022/04/04 17:14:35;;;;;;;;;;;;;;;10.07;100.00;98309.41;4807733;29;20612;-74
2022/04/04 17:17:02;;;;;;;;;;;;;;;10.03;100.00;98302.97;4803424;29;20349;-74
2022/04/04 17:19:29;;;;;;;;;;;;;;;10.02;100.00;98306.97;4807602;29;19980;-74
2022/04/04 17:21:57;;;;;;;;;;;;;;;10.03;100.00;98314.94;4806307;29;20259;-74
2022/04/04 17:24:24;;;;;;;;;;;;;;;9.96;100.00;98300.16;4806461;29;19955;-74
2022/04/04 17:26:51;;;;;;;;;;;;;;;9.88;100.00;98299.31;4802281;29;19959;-74
2022/04/04 17:29:22;;;;;;;;;;;;;;;9.79;100.00;98302.50;4808402;29;19954;-73
2022/04/04 17:31:50;;;;;;;;;;;;;;;9.71;100.00;98305.63;4804691;29;19951;-74
2022/04/04 17:34:17;;;;;;;;;;;;;;;9.64;100.00;98300.84;4798873;29;19968;-73
2022/04/04 17:36:45;;;;;;;;;;;;;;;9.57;100.00;98300.00;4806870;29;20333;-74
2022/04/04 17:39:18;;;;;;;;;;;;;;;9.52;100.00;98290.00;4805402;29;19989;-74
2022/04/04 17:41:45;;;;;;;;;;;;;;;9.43;100.00;98292.34;4807323;29;19960;-74
2022/04/04 17:44:12;;;;;;;;;;;;;;;9.27;100.00;98291.06;4800549;29;19957;-74
2022/04/04 17:46:41;;;;;;;;;;;;;;;9.18;100.00;98294.19;4806642;29;19956;-74
2022/04/04 17:49:10;;;;;;;;;;;;;;;9.11;100.00;98285.78;4805850;29;19961;-73
2022/04/04 17:51:40;;;;;;;;;;;;;;;8.99;100.00;98289.69;4806229;29;19955;-73
2022/04/04 17:54:19;;;;;;;;;;;;;;;8.93;100.00;98284.84;4806876;29;19960;-74
2022/04/04 17:56:49;;;;;;;;;;;;;;;8.88;100.00;98285.19;4805995;29;20258;-74
2022/04/04 17:59:17;;;;;;;;;;;;;;;8.84;100.00;98287.19;4805242;29;19964;-74
2022/04/04 18:01:46;;;;;;;;;;;;;;;8.79;100.00;98279.16;4804153;29;19962;-74
2022/04/04 18:04:15;;;;;;;;;;;;;;;8.74;100.00;98279.53;4797547;29;19955;-74
2022/04/04 18:06:42;;;;;;;;;;;;;;;8.67;100.00;98273.91;4802232;29;19963;-74
2022/04/04 18:09:11;;;;;;;;;;;;;;;8.64;100.00;98288.59;4806232;29;20331;-74
2022/04/04 18:11:40;;;;;;;;;;;;;;;8.61;100.00;98283.81;4804320;29;21326;-74
2022/04/04 18:14:09;;;;;;;;;;;;;;;8.56;100.00;98288.53;4805530;29;19958;-73
2022/04/04 18:16:36;;;;;;;;;;;;;;;8.53;100.00;98280.16;4805000;29;20266;-75
2022/04/04 18:19:04;;;;;;;;;;;;;;;8.50;100.00;98294.84;4805403;29;19954;-76